createdAt,value
2018-05-10T00:00:08.409Z,0.00
2018-05-10T00:01:08.391Z,0.00
2018-05-10T00:02:08.383Z,0.00
2018-05-10T00:03:08.359Z,0.00
2018-05-10T00:04:08.341Z,0.00
2018-05-10T00:05:08.325Z,0.00
2018-05-10T00:06:08.307Z,0.00
2018-05-10T00:07:08.301Z,0.00
2018-05-10T00:08:08.273Z,0.00
2018-05-10T00:09:08.254Z,0.00
2018-05-10T00:10:08.239Z,0.00
2018-05-10T00:11:08.226Z,0.00
2018-05-10T00:12:08.220Z,0.00
2018-05-10T00:13:08.192Z,0.00
2018-05-10T00:14:08.247Z,0.00
2018-05-10T00:15:08.157Z,0.00
2018-05-10T00:16:08.138Z,0.00
2018-05-10T00:17:08.120Z,0.00
2018-05-10T00:18:08.127Z,0.00
2018-05-10T00:19:08.088Z,0.00
2018-05-10T00:20:08.069Z,0.00
2018-05-10T00:21:08.054Z,0.00
2018-05-10T00:22:08.044Z,0.00
2018-05-10T00:23:08.020Z,0.00
2018-05-10T00:24:08.016Z,0.00
2018-05-10T00:25:07.985Z,0.00
2018-05-10T00:26:07.969Z,0.00
2018-05-10T00:27:07.952Z,0.00
2018-05-10T00:28:07.944Z,0.00
2018-05-10T00:29:07.926Z,0.00
2018-05-10T00:30:07.899Z,0.00
2018-05-10T00:31:07.884Z,0.00
2018-05-10T00:32:07.869Z,0.00
2018-05-10T00:33:07.850Z,0.00
2018-05-10T00:34:08.088Z,0.00
2018-05-10T00:35:07.815Z,0.00
2018-05-10T00:36:07.799Z,0.00
2018-05-10T00:37:07.780Z,0.00
2018-05-10T00:38:07.762Z,0.00
2018-05-10T00:39:07.745Z,0.00
2018-05-10T00:40:07.747Z,0.00
2018-05-10T00:41:07.711Z,0.00
2018-05-10T00:42:07.696Z,0.00
2018-05-10T00:43:07.678Z,0.00
2018-05-10T00:44:07.660Z,0.00
2018-05-10T00:45:07.644Z,0.00
2018-05-10T00:46:07.720Z,0.00
2018-05-10T00:47:07.609Z,0.00
2018-05-10T00:48:07.589Z,0.00
2018-05-10T00:49:07.575Z,0.00
2018-05-10T00:50:07.556Z,0.00
2018-05-10T00:51:07.638Z,0.00
2018-05-10T00:52:07.525Z,0.00
2018-05-10T00:53:07.506Z,0.00
2018-05-10T00:54:07.486Z,0.00
2018-05-10T00:55:07.471Z,0.00
2018-05-10T00:56:07.463Z,0.00
2018-05-10T00:57:07.437Z,0.00
2018-05-10T00:58:07.420Z,0.00
2018-05-10T00:59:07.402Z,0.00
2018-05-10T01:00:07.385Z,0.00
2018-05-10T01:01:07.397Z,0.00
2018-05-10T01:02:07.353Z,0.00
2018-05-10T01:03:07.333Z,0.00
2018-05-10T01:04:07.317Z,0.00
2018-05-10T01:05:07.297Z,0.00
2018-05-10T01:06:07.284Z,0.00
2018-05-10T01:07:07.282Z,0.00
2018-05-10T01:08:07.249Z,0.00
2018-05-10T01:09:07.227Z,0.00
2018-05-10T01:10:07.211Z,0.00
2018-05-10T01:11:07.192Z,0.00
2018-05-10T01:12:07.177Z,0.00
2018-05-10T01:13:07.170Z,0.00
2018-05-10T01:14:07.141Z,0.00
2018-05-10T01:15:07.124Z,0.00
2018-05-10T01:16:07.106Z,0.00
2018-05-10T01:17:07.089Z,0.00
2018-05-10T01:18:07.084Z,0.00
2018-05-10T01:19:07.054Z,0.00
2018-05-10T01:20:07.037Z,0.00
2018-05-10T01:21:07.017Z,0.00
2018-05-10T01:22:07.001Z,0.00
2018-05-10T01:23:07.257Z,0.00
2018-05-10T01:24:06.967Z,0.00
2018-05-10T01:25:06.948Z,0.00
2018-05-10T01:26:06.934Z,0.00
2018-05-10T01:27:06.914Z,0.00
2018-05-10T01:28:06.897Z,0.00
2018-05-10T01:29:06.893Z,0.00
2018-05-10T01:30:06.862Z,0.00
2018-05-10T01:31:06.844Z,0.00
2018-05-10T01:32:06.829Z,0.00
2018-05-10T01:33:06.817Z,0.00
2018-05-10T01:34:06.794Z,0.00
2018-05-10T01:35:06.787Z,0.00
2018-05-10T01:36:06.756Z,0.00
2018-05-10T01:37:06.738Z,0.00
2018-05-10T01:38:06.721Z,0.00
2018-05-10T01:39:06.706Z,0.00
2018-05-10T01:40:06.697Z,0.00
2018-05-10T01:41:06.669Z,0.00
2018-05-10T01:42:06.651Z,0.00
2018-05-10T01:43:06.634Z,0.00
2018-05-10T01:44:06.618Z,0.00
2018-05-10T01:45:06.613Z,0.00
2018-05-10T01:46:06.581Z,0.00
2018-05-10T01:47:06.569Z,0.00
2018-05-10T01:48:06.548Z,0.00
2018-05-10T01:49:06.533Z,0.00
2018-05-10T01:50:06.512Z,0.00
2018-05-10T01:51:06.505Z,0.00
2018-05-10T01:52:06.478Z,0.00
2018-05-10T01:53:06.459Z,0.00
2018-05-10T01:54:06.442Z,0.00
2018-05-10T01:55:06.426Z,0.00
2018-05-10T01:56:06.417Z,0.00
2018-05-10T01:57:06.389Z,0.00
2018-05-10T01:58:06.373Z,0.00
2018-05-10T01:59:06.355Z,0.00
2018-05-10T02:00:06.337Z,0.00
2018-05-10T02:01:06.354Z,0.00
2018-05-10T02:02:06.303Z,0.00
2018-05-10T02:03:06.285Z,0.00
2018-05-10T02:04:06.273Z,0.00
2018-05-10T02:05:06.253Z,0.00
2018-05-10T02:06:06.232Z,0.00
2018-05-10T02:07:06.225Z,0.00
2018-05-10T02:08:06.201Z,0.00
2018-05-10T02:09:06.182Z,0.00
2018-05-10T02:10:06.163Z,0.00
2018-05-10T02:11:06.147Z,0.00
2018-05-10T02:12:06.144Z,0.00
2018-05-10T02:13:06.115Z,0.00
2018-05-10T02:14:06.095Z,0.00
2018-05-10T02:15:06.078Z,0.00
2018-05-10T02:16:06.063Z,0.00
2018-05-10T02:17:06.061Z,0.00
2018-05-10T02:18:06.026Z,0.00
2018-05-10T02:19:06.008Z,0.00
2018-05-10T02:20:05.994Z,0.00
2018-05-10T02:21:05.973Z,0.00
2018-05-10T02:22:05.958Z,0.00
2018-05-10T02:23:05.950Z,0.00
2018-05-10T02:24:05.923Z,0.00
2018-05-10T02:25:05.907Z,0.00
2018-05-10T02:26:05.887Z,0.00
2018-05-10T02:27:05.871Z,0.00
2018-05-10T02:28:05.867Z,0.00
2018-05-10T02:29:05.836Z,0.00
2018-05-10T02:30:05.820Z,0.00
2018-05-10T02:31:05.803Z,0.00
2018-05-10T02:32:05.792Z,0.00
2018-05-10T02:33:05.775Z,0.00
2018-05-10T02:34:05.764Z,0.00
2018-05-10T02:35:05.734Z,0.00
2018-05-10T02:36:05.716Z,0.00
2018-05-10T02:37:05.697Z,0.00
2018-05-10T02:38:05.681Z,0.00
2018-05-10T02:39:05.673Z,0.00
2018-05-10T02:40:05.648Z,0.00
2018-05-10T02:41:05.631Z,0.00
2018-05-10T02:42:05.611Z,0.00
2018-05-10T02:43:05.598Z,0.00
2018-05-10T02:44:05.596Z,0.00
2018-05-10T02:45:05.659Z,0.00
2018-05-10T02:46:05.544Z,0.00
2018-05-10T02:47:05.528Z,0.00
2018-05-10T02:48:05.509Z,0.00
2018-05-10T02:49:05.505Z,0.00
2018-05-10T02:50:05.474Z,0.00
2018-05-10T02:51:05.458Z,0.00
2018-05-10T02:52:05.442Z,0.00
2018-05-10T02:53:05.421Z,0.00
2018-05-10T02:54:05.410Z,0.00
2018-05-10T02:55:05.401Z,0.00
2018-05-10T02:56:05.377Z,0.00
2018-05-10T02:57:05.355Z,0.00
2018-05-10T02:58:05.336Z,0.00
2018-05-10T02:59:05.322Z,0.00
2018-05-10T03:00:05.321Z,0.00
2018-05-10T03:01:05.285Z,0.00
2018-05-10T03:02:05.269Z,0.00
2018-05-10T03:03:05.252Z,0.00
2018-05-10T03:04:05.236Z,0.00
2018-05-10T03:05:05.217Z,0.00
2018-05-10T03:06:05.209Z,0.00
2018-05-10T03:07:05.184Z,0.00
2018-05-10T03:08:05.172Z,0.00
2018-05-10T03:09:05.149Z,0.00
2018-05-10T03:10:05.133Z,0.00
2018-05-10T03:11:05.123Z,0.00
2018-05-10T03:12:05.101Z,4.00
2018-05-10T03:13:05.081Z,4.00
2018-05-10T03:14:05.062Z,4.00
2018-05-10T03:15:05.049Z,0.00
2018-05-10T03:16:05.038Z,4.00
2018-05-10T03:17:05.012Z,4.00
2018-05-10T03:18:04.993Z,4.00
2018-05-10T03:19:04.975Z,4.00
2018-05-10T03:20:04.958Z,8.00
2018-05-10T03:21:04.957Z,4.00
2018-05-10T03:22:04.924Z,8.00
2018-05-10T03:23:04.907Z,8.00
2018-05-10T03:24:04.890Z,8.00
2018-05-10T03:25:04.873Z,12.00
2018-05-10T03:26:04.857Z,12.00
2018-05-10T03:27:04.849Z,16.00
2018-05-10T03:28:04.823Z,20.00
2018-05-10T03:29:04.804Z,20.00
2018-05-10T03:30:04.787Z,24.00
2018-05-10T03:31:04.778Z,28.00
2018-05-10T03:32:04.769Z,32.00
2018-05-10T03:33:04.735Z,36.00
2018-05-10T03:34:04.718Z,36.00
2018-05-10T03:35:04.702Z,44.00
2018-05-10T03:36:04.691Z,48.00
2018-05-10T03:37:04.667Z,56.00
2018-05-10T03:38:04.661Z,64.00
2018-05-10T03:39:04.633Z,68.00
2018-05-10T03:40:04.616Z,80.00
2018-05-10T03:41:04.598Z,88.00
2018-05-10T03:42:04.582Z,96.00
2018-05-10T03:43:04.574Z,108.00
2018-05-10T03:44:04.546Z,120.00
2018-05-10T03:45:04.532Z,128.00
2018-05-10T03:46:04.518Z,140.00
2018-05-10T03:47:04.496Z,152.00
2018-05-10T03:48:04.492Z,164.00
2018-05-10T03:49:04.463Z,176.00
2018-05-10T03:50:04.444Z,192.00
2018-05-10T03:51:04.429Z,204.00
2018-05-10T03:52:04.409Z,216.00
2018-05-10T03:53:04.391Z,232.00
2018-05-10T03:54:04.383Z,240.00
2018-05-10T03:55:04.357Z,260.00
2018-05-10T03:56:04.341Z,272.00
2018-05-10T03:57:04.322Z,284.00
2018-05-10T03:58:04.310Z,300.00
2018-05-10T03:59:04.298Z,316.00
2018-05-10T04:00:04.272Z,332.00
2018-05-10T04:01:04.253Z,348.00
2018-05-10T04:02:04.237Z,368.00
2018-05-10T04:03:04.221Z,384.00
2018-05-10T04:04:04.212Z,408.00
2018-05-10T04:05:04.185Z,428.00
2018-05-10T04:06:04.183Z,448.00
2018-05-10T04:07:04.154Z,468.00
2018-05-10T04:08:04.136Z,484.00
2018-05-10T04:09:04.126Z,508.00
2018-05-10T04:10:04.103Z,524.00
2018-05-10T04:11:04.083Z,548.00
2018-05-10T04:12:04.066Z,572.00
2018-05-10T04:13:04.047Z,600.00
2018-05-10T04:14:04.040Z,624.00
2018-05-10T04:15:04.025Z,652.00
2018-05-10T04:16:04.000Z,680.00
2018-05-10T04:17:03.978Z,708.00
2018-05-10T04:18:03.960Z,736.00
2018-05-10T04:19:03.946Z,768.00
2018-05-10T04:20:03.937Z,800.00
2018-05-10T04:21:03.909Z,832.00
2018-05-10T04:22:03.893Z,864.00
2018-05-10T04:23:03.879Z,900.00
2018-05-10T04:24:03.860Z,932.00
2018-05-10T04:25:03.849Z,972.00
2018-05-10T04:26:03.823Z,1004.00
2018-05-10T04:27:03.807Z,1048.00
2018-05-10T04:28:03.789Z,1076.00
2018-05-10T04:29:03.774Z,1108.00
2018-05-10T04:30:03.763Z,1124.00
2018-05-10T04:31:03.737Z,1128.00
2018-05-10T04:32:03.720Z,1152.00
2018-05-10T04:33:03.709Z,1180.00
2018-05-10T04:34:03.686Z,1216.00
2018-05-10T04:35:03.681Z,1256.00
2018-05-10T04:36:03.652Z,1296.00
2018-05-10T04:37:03.639Z,1332.00
2018-05-10T04:38:03.619Z,1396.00
2018-05-10T04:39:03.599Z,1436.00
2018-05-10T04:40:03.867Z,1484.00
2018-05-10T04:41:03.563Z,1528.00
2018-05-10T04:42:03.548Z,1576.00
2018-05-10T04:43:03.534Z,1612.00
2018-05-10T04:44:03.514Z,1680.00
2018-05-10T04:45:03.497Z,1748.00
2018-05-10T04:46:03.495Z,1816.00
2018-05-10T04:47:03.461Z,1852.00
2018-05-10T04:48:03.448Z,1924.00
2018-05-10T04:49:03.485Z,2004.00
2018-05-10T04:50:03.415Z,2064.00
2018-05-10T04:51:03.392Z,2092.00
2018-05-10T04:52:03.385Z,2112.00
2018-05-10T04:53:03.359Z,2132.00
2018-05-10T04:54:03.339Z,2148.00
2018-05-10T04:55:03.323Z,2164.00
2018-05-10T04:56:03.308Z,2180.00
2018-05-10T04:57:03.296Z,2212.00
2018-05-10T04:58:03.272Z,2228.00
2018-05-10T04:59:03.257Z,2288.00
2018-05-10T05:00:03.239Z,2360.00
2018-05-10T05:01:03.222Z,2472.00
2018-05-10T05:02:03.216Z,2580.00
2018-05-10T05:03:03.186Z,2692.00
2018-05-10T05:04:03.169Z,2796.00
2018-05-10T05:05:03.153Z,2888.00
2018-05-10T05:06:03.135Z,2964.00
2018-05-10T05:07:03.118Z,3076.00
2018-05-10T05:08:03.108Z,3148.00
2018-05-10T05:09:03.173Z,3172.00
2018-05-10T05:10:03.064Z,3276.00
2018-05-10T05:11:03.051Z,3388.00
2018-05-10T05:12:03.076Z,3516.00
2018-05-10T05:13:03.034Z,3696.00
2018-05-10T05:14:02.995Z,3820.00
2018-05-10T05:15:02.986Z,3936.00
2018-05-10T05:16:02.961Z,3988.00
2018-05-10T05:17:02.945Z,4268.00
2018-05-10T05:18:03.189Z,4384.00
2018-05-10T05:19:02.909Z,4452.00
2018-05-10T05:20:02.893Z,4372.00
2018-05-10T05:21:02.878Z,4504.00
2018-05-10T05:22:02.858Z,4932.00
2018-05-10T05:23:02.842Z,5104.00
2018-05-10T05:24:02.831Z,5220.00
2018-05-10T05:25:02.809Z,5308.00
2018-05-10T05:26:02.786Z,5380.00
2018-05-10T05:27:02.769Z,5492.00
2018-05-10T05:28:02.752Z,5560.00
2018-05-10T05:29:02.746Z,5524.00
2018-05-10T05:30:02.719Z,5544.00
2018-05-10T05:31:02.699Z,5500.00
2018-05-10T05:32:02.683Z,5240.00
2018-05-10T05:33:02.664Z,5112.00
2018-05-10T05:34:02.663Z,4772.00
2018-05-10T05:35:02.629Z,4664.00
2018-05-10T05:36:02.616Z,4424.00
2018-05-10T05:37:02.596Z,3864.00
2018-05-10T05:38:02.580Z,3156.00
2018-05-10T05:39:02.562Z,2608.00
2018-05-10T05:40:02.554Z,2628.00
2018-05-10T05:41:02.558Z,2848.00
2018-05-10T05:42:02.510Z,2880.00
2018-05-10T05:43:02.494Z,3012.00
2018-05-10T05:44:02.477Z,3120.00
2018-05-10T05:45:02.493Z,3228.00
2018-05-10T05:46:02.442Z,3156.00
2018-05-10T05:47:02.419Z,3340.00
2018-05-10T05:48:02.408Z,3160.00
2018-05-10T05:49:02.390Z,3036.00
2018-05-10T05:50:02.373Z,3308.00
2018-05-10T05:51:02.364Z,3700.00
2018-05-10T05:52:02.340Z,4008.00
2018-05-10T05:53:02.319Z,4112.00
2018-05-10T05:54:02.301Z,4280.00
2018-05-10T05:55:02.353Z,4092.00
2018-05-10T05:56:02.277Z,3764.00
2018-05-10T05:57:02.250Z,3704.00
2018-05-10T05:58:02.233Z,4104.00
2018-05-10T05:59:02.224Z,4496.00
2018-05-10T06:00:02.199Z,4840.00
2018-05-10T06:01:02.190Z,5024.00
2018-05-10T06:02:02.163Z,5444.00
2018-05-10T06:03:02.147Z,5460.00
2018-05-10T06:04:02.129Z,4992.00
2018-05-10T06:05:02.115Z,5032.00
2018-05-10T06:06:02.125Z,5152.00
2018-05-10T06:07:02.077Z,5484.00
2018-05-10T06:08:02.060Z,5664.00
2018-05-10T06:09:02.042Z,5680.00
2018-05-10T06:10:02.027Z,5852.00
2018-05-10T06:11:02.010Z,6164.00
2018-05-10T06:12:01.998Z,6248.00
2018-05-10T06:13:01.973Z,6236.00
2018-05-10T06:14:01.956Z,6160.00
2018-05-10T06:15:01.940Z,5948.00
2018-05-10T06:16:01.939Z,6012.00
2018-05-10T06:17:02.190Z,6252.00
2018-05-10T06:18:01.887Z,6048.00
2018-05-10T06:19:01.869Z,5920.00
2018-05-10T06:20:01.851Z,5992.00
2018-05-10T06:21:01.836Z,6268.00
2018-05-10T06:22:01.835Z,6212.00
2018-05-10T06:23:01.812Z,6424.00
2018-05-10T06:24:01.783Z,6748.00
2018-05-10T06:25:01.790Z,6744.00
2018-05-10T06:26:01.752Z,6960.00
2018-05-10T06:27:01.730Z,7228.00
2018-05-10T06:28:01.727Z,7512.00
2018-05-10T06:29:01.700Z,7680.00
2018-05-10T06:30:01.682Z,7500.00
2018-05-10T06:31:01.662Z,7344.00
2018-05-10T06:32:01.645Z,7208.00
2018-05-10T06:33:01.638Z,7316.00
2018-05-10T06:34:01.677Z,7348.00
2018-05-10T06:35:01.599Z,7420.00
2018-05-10T06:36:01.579Z,7512.00
2018-05-10T06:37:01.561Z,7488.00
2018-05-10T06:38:01.558Z,7452.00
2018-05-10T06:39:01.529Z,7424.00
2018-05-10T06:40:01.509Z,7356.00
2018-05-10T06:41:01.491Z,7408.00
2018-05-10T06:42:01.474Z,7676.00
2018-05-10T06:43:01.466Z,7976.00
2018-05-10T06:44:01.445Z,8208.00
2018-05-10T06:45:01.424Z,8544.00
2018-05-10T06:46:01.406Z,8732.00
2018-05-10T06:47:01.389Z,8668.00
2018-05-10T06:48:01.380Z,8916.00
2018-05-10T06:49:01.359Z,9392.00
2018-05-10T06:50:01.337Z,9384.00
2018-05-10T06:51:01.321Z,9756.00
2018-05-10T06:52:01.303Z,10000.00
2018-05-10T06:53:01.301Z,10180.00
2018-05-10T06:54:01.268Z,10400.00
2018-05-10T06:55:01.250Z,10508.00
2018-05-10T06:56:01.235Z,10552.00
2018-05-10T06:57:01.223Z,10604.00
2018-05-10T06:58:01.201Z,10740.00
2018-05-10T06:59:01.193Z,10904.00
2018-05-10T07:00:01.168Z,11024.00
2018-05-10T07:01:01.151Z,11108.00
2018-05-10T07:02:01.136Z,11204.00
2018-05-10T07:03:01.119Z,11308.00
2018-05-10T07:04:01.109Z,11480.00
2018-05-10T07:05:01.082Z,11632.00
2018-05-10T07:06:01.074Z,11840.00
2018-05-10T07:07:01.048Z,12064.00
2018-05-10T07:08:01.032Z,12308.00
2018-05-10T07:09:01.033Z,12748.00
2018-05-10T07:10:01.150Z,13108.00
2018-05-10T07:11:00.984Z,13476.00
2018-05-10T07:12:00.966Z,13780.00
2018-05-10T07:13:00.950Z,13940.00
2018-05-10T07:14:00.933Z,14048.00
2018-05-10T07:15:00.934Z,14296.00
2018-05-10T07:16:00.906Z,14500.00
2018-05-10T07:17:00.886Z,14656.00
2018-05-10T07:18:00.866Z,14992.00
2018-05-10T07:19:00.854Z,15480.00
2018-05-10T07:20:00.846Z,15740.00
2018-05-10T07:21:00.815Z,15792.00
2018-05-10T07:22:00.801Z,16188.00
2018-05-10T07:23:00.785Z,16532.00
2018-05-10T07:24:00.769Z,16748.00
2018-05-10T07:25:00.772Z,16576.00
2018-05-10T07:26:00.767Z,16908.00
2018-05-10T07:27:00.720Z,17216.00
2018-05-10T07:28:00.704Z,17280.00
2018-05-10T07:29:00.688Z,17600.00
2018-05-10T07:30:00.672Z,17856.00
2018-05-10T07:31:00.658Z,17952.00
2018-05-10T07:32:00.653Z,17824.00
2018-05-10T07:33:00.639Z,17600.00
2018-05-10T07:34:00.607Z,17856.00
2018-05-10T07:35:00.592Z,17164.00
2018-05-10T07:36:00.614Z,16612.00
2018-05-10T07:37:00.568Z,16076.00
2018-05-10T07:38:00.542Z,16212.00
2018-05-10T07:39:00.525Z,15696.00
2018-05-10T07:40:00.518Z,15500.00
2018-05-10T07:41:00.496Z,14568.00
2018-05-10T07:42:00.498Z,14176.00
2018-05-10T07:43:00.462Z,13936.00
2018-05-10T07:44:00.449Z,13532.00
2018-05-10T07:45:00.441Z,13120.00
2018-05-10T07:46:00.416Z,13588.00
2018-05-10T07:47:00.401Z,12644.00
2018-05-10T07:48:00.661Z,11264.00
2018-05-10T07:49:00.371Z,10324.00
2018-05-10T07:50:00.354Z,9696.00
2018-05-10T07:51:00.337Z,9284.00
2018-05-10T07:52:00.320Z,9148.00
2018-05-10T07:53:00.306Z,9344.00
2018-05-10T07:54:00.300Z,9836.00
2018-05-10T07:55:00.274Z,10908.00
2018-05-10T07:56:00.257Z,11768.00
2018-05-10T07:57:00.242Z,11932.00
2018-05-10T07:58:00.225Z,12132.00
2018-05-10T07:59:00.222Z,12756.00
2018-05-10T08:00:00.201Z,13408.00
2018-05-10T08:01:00.181Z,13460.00
2018-05-10T08:02:00.163Z,12772.00
2018-05-10T08:03:00.146Z,12064.00
2018-05-10T08:04:00.143Z,11780.00
2018-05-10T08:05:00.110Z,11288.00
2018-05-10T08:06:00.098Z,10992.00
2018-05-10T08:07:00.088Z,10508.00
2018-05-10T08:08:00.068Z,9944.00
2018-05-10T08:09:00.048Z,9600.00
2018-05-10T08:10:00.126Z,9340.00
2018-05-10T08:11:00.021Z,9076.00
2018-05-10T08:12:00.021Z,8848.00
2018-05-10T08:12:59.987Z,8480.00
2018-05-10T08:13:59.973Z,8280.00
2018-05-10T08:14:59.956Z,8008.00
2018-05-10T08:15:59.955Z,7648.00
2018-05-10T08:16:59.966Z,7708.00
2018-05-10T08:17:59.910Z,7620.00
2018-05-10T08:18:59.894Z,7352.00
2018-05-10T08:19:59.877Z,7056.00
2018-05-10T08:20:59.860Z,6800.00
2018-05-10T08:21:59.856Z,6632.00
2018-05-10T08:22:59.828Z,6560.00
2018-05-10T08:23:59.813Z,6532.00
2018-05-10T08:24:59.796Z,6216.00
2018-05-10T08:25:59.780Z,5876.00
2018-05-10T08:26:59.775Z,5872.00
2018-05-10T08:27:59.751Z,6088.00
2018-05-10T08:28:59.731Z,6332.00
2018-05-10T08:29:59.720Z,6416.00
2018-05-10T08:30:59.703Z,6176.00
2018-05-10T08:31:59.699Z,5840.00
2018-05-10T08:32:59.668Z,5500.00
2018-05-10T08:33:59.655Z,5228.00
2018-05-10T08:34:59.637Z,5264.00
2018-05-10T08:35:59.624Z,5576.00
2018-05-10T08:36:59.604Z,5960.00
2018-05-10T08:37:59.603Z,6508.00
2018-05-10T08:38:59.576Z,6968.00
2018-05-10T08:39:59.556Z,7080.00
2018-05-10T08:40:59.540Z,6456.00
2018-05-10T08:41:59.523Z,5756.00
2018-05-10T08:42:59.521Z,5380.00
2018-05-10T08:43:59.492Z,5352.00
2018-05-10T08:44:59.574Z,5412.00
2018-05-10T08:45:59.459Z,5276.00
2018-05-10T08:46:59.442Z,5448.00
2018-05-10T08:47:59.429Z,5628.00
2018-05-10T08:48:59.418Z,5624.00
2018-05-10T08:49:59.395Z,5436.00
2018-05-10T08:50:59.378Z,5292.00
2018-05-10T08:51:59.463Z,5360.00
2018-05-10T08:52:59.349Z,5580.00
2018-05-10T08:53:59.337Z,5904.00
2018-05-10T08:54:59.316Z,5928.00
2018-05-10T08:55:59.297Z,5704.00
2018-05-10T08:56:59.281Z,5576.00
2018-05-10T08:57:59.261Z,5808.00
2018-05-10T08:58:59.272Z,5988.00
2018-05-10T08:59:59.262Z,5900.00
2018-05-10T09:00:59.217Z,5744.00
2018-05-10T09:01:59.198Z,5384.00
2018-05-10T09:02:59.183Z,5056.00
2018-05-10T09:03:59.185Z,4908.00
2018-05-10T09:04:59.149Z,5040.00
2018-05-10T09:05:59.133Z,5424.00
2018-05-10T09:06:59.120Z,5932.00
2018-05-10T09:07:59.102Z,6524.00
2018-05-10T09:08:59.087Z,7224.00
2018-05-10T09:09:59.101Z,7872.00
2018-05-10T09:10:59.053Z,8680.00
2018-05-10T09:11:59.038Z,9596.00
2018-05-10T09:12:59.021Z,10036.00
2018-05-10T09:13:59.004Z,9748.00
2018-05-10T09:14:58.991Z,9392.00
2018-05-10T09:15:58.986Z,9588.00
2018-05-10T09:16:58.964Z,10464.00
2018-05-10T09:17:58.940Z,11536.00
2018-05-10T09:18:58.924Z,12408.00
2018-05-10T09:19:58.907Z,13012.00
2018-05-10T09:20:58.902Z,13536.00
2018-05-10T09:21:58.875Z,14052.00
2018-05-10T09:22:58.859Z,14956.00
2018-05-10T09:23:58.842Z,15696.00
2018-05-10T09:24:58.827Z,16296.00
2018-05-10T09:25:58.841Z,17024.00
2018-05-10T09:26:58.795Z,17152.00
2018-05-10T09:27:58.780Z,16504.00
2018-05-10T09:28:58.762Z,15504.00
2018-05-10T09:29:58.748Z,13920.00
2018-05-10T09:30:58.741Z,12180.00
2018-05-10T09:31:58.720Z,10616.00
2018-05-10T09:32:58.701Z,9168.00
2018-05-10T09:33:58.685Z,8184.00
2018-05-10T09:34:58.669Z,7908.00
2018-05-10T09:35:58.663Z,8060.00
2018-05-10T09:36:58.638Z,8328.00
2018-05-10T09:37:58.622Z,8860.00
2018-05-10T09:38:58.700Z,9544.00
2018-05-10T09:39:58.594Z,10176.00
2018-05-10T09:40:58.594Z,10692.00
2018-05-10T09:41:58.561Z,10976.00
2018-05-10T09:42:58.543Z,11048.00
2018-05-10T09:43:58.531Z,11044.00
2018-05-10T09:44:58.567Z,11092.00
2018-05-10T09:45:58.497Z,11280.00
2018-05-10T09:46:58.492Z,11588.00
2018-05-10T09:47:58.467Z,11872.00
2018-05-10T09:48:58.450Z,12064.00
2018-05-10T09:49:58.435Z,12064.00
2018-05-10T09:50:58.422Z,11688.00
2018-05-10T09:51:58.416Z,11216.00
2018-05-10T09:52:58.387Z,10840.00
2018-05-10T09:53:58.372Z,10792.00
2018-05-10T09:54:58.357Z,10608.00
2018-05-10T09:55:58.341Z,10300.00
2018-05-10T09:56:58.353Z,10088.00
2018-05-10T09:57:58.349Z,9940.00
2018-05-10T09:58:58.306Z,9932.00
2018-05-10T09:59:58.314Z,10252.00
2018-05-10T10:00:58.261Z,10776.00
2018-05-10T10:01:58.245Z,11488.00
2018-05-10T10:02:58.241Z,12268.00
2018-05-10T10:03:58.218Z,12796.00
2018-05-10T10:04:58.199Z,13248.00
2018-05-10T10:05:58.183Z,13584.00
2018-05-10T10:06:58.165Z,13700.00
2018-05-10T10:07:58.167Z,13716.00
2018-05-10T10:08:58.134Z,13552.00
2018-05-10T10:09:58.124Z,13264.00
2018-05-10T10:10:58.104Z,12968.00
2018-05-10T10:11:58.089Z,12560.00
2018-05-10T10:12:58.072Z,12076.00
2018-05-10T10:13:58.075Z,11640.00
2018-05-10T10:14:58.041Z,11356.00
2018-05-10T10:15:58.025Z,11180.00
2018-05-10T10:16:58.007Z,11012.00
2018-05-10T10:17:57.993Z,10848.00
2018-05-10T10:18:57.988Z,10572.00
2018-05-10T10:19:57.962Z,10100.00
2018-05-10T10:20:57.944Z,9616.00
2018-05-10T10:21:57.929Z,9176.00
2018-05-10T10:22:57.913Z,8772.00
2018-05-10T10:23:57.908Z,8420.00
2018-05-10T10:24:57.881Z,8160.00
2018-05-10T10:25:57.869Z,7972.00
2018-05-10T10:26:57.848Z,7876.00
2018-05-10T10:27:57.835Z,7864.00
2018-05-10T10:28:57.829Z,7852.00
2018-05-10T10:29:57.801Z,7948.00
